createdAt,value
2023-04-02T00:00:37.376Z,1.75
2023-04-02T00:03:08.886Z,1.90
2023-04-02T00:05:45.712Z,1.60
2023-04-02T00:08:48.459Z,1.50
2023-04-02T00:11:36.201Z,1.50
2023-04-02T00:14:27.416Z,1.58
2023-04-02T00:16:59.087Z,1.70
2023-04-02T00:19:34.618Z,1.58
2023-04-02T00:22:08.126Z,1.33
2023-04-02T00:24:36.353Z,1.50
2023-04-02T00:27:04.832Z,1.50
2023-04-02T00:29:34.967Z,1.58
2023-04-02T00:32:16.206Z,2.05
2023-04-02T00:34:50.509Z,1.40
2023-04-02T00:37:32.896Z,1.60
2023-04-02T00:40:10.313Z,1.62
2023-04-02T00:42:49.661Z,1.40
2023-04-02T00:45:32.630Z,1.50
2023-04-02T00:48:36.494Z,1.45
2023-04-02T00:51:20.333Z,1.60
2023-04-02T00:53:56.859Z,1.40
2023-04-02T00:56:47.275Z,1.37
2023-04-02T00:59:47.050Z,1.20
2023-04-02T01:02:22.322Z,1.40
2023-04-02T01:05:03.860Z,1.30
2023-04-02T01:07:50.228Z,1.15
2023-04-02T01:10:39.750Z,1.40
2023-04-02T01:13:39.258Z,1.33
2023-04-02T01:16:36.692Z,1.33
2023-04-02T01:19:32.405Z,1.20
2023-04-02T01:22:45.496Z,1.20
2023-04-02T01:25:27.581Z,1.48
2023-04-02T01:28:13.472Z,1.23
2023-04-02T01:30:45.279Z,1.10
2023-04-02T01:33:15.655Z,1.52
2023-04-02T01:35:57.511Z,1.58
2023-04-02T01:38:33.496Z,1.30
2023-04-02T01:41:24.861Z,1.40
2023-04-02T01:44:14.669Z,1.40
2023-04-02T01:46:43.509Z,1.25
2023-04-02T01:49:22.822Z,1.10
2023-04-02T01:52:06.612Z,1.23
2023-04-02T01:54:41.530Z,1.30
2023-04-02T01:57:13.717Z,1.40
2023-04-02T01:59:47.028Z,1.10
2023-04-02T02:02:21.284Z,1.20
2023-04-02T02:04:55.458Z,1.30
2023-04-02T02:07:26.029Z,1.15
2023-04-02T02:09:57.822Z,1.50
2023-04-02T02:12:27.971Z,1.30
2023-04-02T02:14:55.368Z,1.02
2023-04-02T02:17:31.609Z,1.20
2023-04-02T02:20:08.963Z,0.90
2023-04-02T02:22:40.537Z,1.20
2023-04-02T02:25:31.418Z,1.08
2023-04-02T02:28:29.600Z,1.10
2023-04-02T02:31:05.174Z,1.30
2023-04-02T02:33:42.181Z,1.30
2023-04-02T02:36:31.021Z,1.10
2023-04-02T02:39:24.027Z,1.05
2023-04-02T02:42:04.826Z,1.05
2023-04-02T02:44:47.386Z,0.90
2023-04-02T02:47:29.503Z,1.10
2023-04-02T02:50:09.275Z,0.90
2023-04-02T02:52:45.605Z,0.93
2023-04-02T02:55:37.083Z,1.10
2023-04-02T02:58:20.011Z,1.20
2023-04-02T03:00:51.750Z,1.10
2023-04-02T03:03:27.228Z,1.02
2023-04-02T03:06:08.697Z,1.05
2023-04-02T03:08:54.664Z,0.90
2023-04-02T03:11:36.914Z,1.60
2023-04-02T03:14:35.608Z,0.90
2023-04-02T03:17:21.957Z,1.25
2023-04-02T03:20:15.640Z,1.23
2023-04-02T03:22:54.656Z,1.15
2023-04-02T03:25:52.535Z,1.20
2023-04-02T03:28:26.462Z,1.00
2023-04-02T03:31:10.478Z,1.00
2023-04-02T03:33:54.626Z,0.82
2023-04-02T03:36:27.811Z,0.95
2023-04-02T03:39:04.730Z,1.10
2023-04-02T03:41:52.676Z,0.85
2023-04-02T03:44:35.503Z,1.05
2023-04-02T03:47:13.549Z,1.15
2023-04-02T03:49:51.972Z,0.90
2023-04-02T03:52:29.828Z,0.90
2023-04-02T03:55:11.882Z,0.90
2023-04-02T03:57:46.315Z,1.02
2023-04-02T04:00:39.386Z,0.90
2023-04-02T04:03:17.025Z,1.25
2023-04-02T04:06:00.137Z,0.85
2023-04-02T04:08:54.955Z,1.10
2023-04-02T04:11:37.118Z,0.70
2023-04-02T04:14:21.527Z,1.48
2023-04-02T04:16:58.006Z,1.25
2023-04-02T04:19:40.366Z,1.00
2023-04-02T04:22:24.998Z,0.95
2023-04-02T04:24:54.737Z,0.90
2023-04-02T04:27:43.730Z,0.80
2023-04-02T04:30:21.931Z,1.17
2023-04-02T04:32:59.879Z,0.90
2023-04-02T04:35:40.065Z,1.10
2023-04-02T04:38:18.465Z,0.85
2023-04-02T04:41:11.009Z,1.20
2023-04-02T04:43:51.304Z,1.10
2023-04-02T04:46:40.671Z,0.70
2023-04-02T04:49:41.070Z,0.60
2023-04-02T04:52:25.070Z,0.93
2023-04-02T04:54:53.507Z,0.90
2023-04-02T04:57:37.297Z,0.70
2023-04-02T05:00:28.851Z,0.90
2023-04-02T05:03:14.860Z,0.88
2023-04-02T05:05:46.550Z,0.98
2023-04-02T05:08:34.712Z,0.85
2023-04-02T05:11:11.670Z,0.95
2023-04-02T05:13:53.872Z,1.00
2023-04-02T05:17:00.052Z,1.00
2023-04-02T05:19:51.874Z,0.70
2023-04-02T05:22:39.414Z,0.70
2023-04-02T05:25:33.784Z,0.70
2023-04-02T05:28:23.335Z,0.60
2023-04-02T05:31:07.181Z,0.73
2023-04-02T05:33:40.343Z,0.70
2023-04-02T05:38:55.189Z,0.90
2023-04-02T05:41:38.312Z,0.98
2023-04-02T05:44:18.869Z,0.90
2023-04-02T05:47:05.080Z,0.88
2023-04-02T05:49:56.657Z,1.10
2023-04-02T05:52:29.645Z,1.00
2023-04-02T05:55:20.058Z,0.90
2023-04-02T05:58:17.651Z,1.10
2023-04-02T06:01:02.838Z,0.98
2023-04-02T06:04:20.713Z,1.60
2023-04-02T06:07:06.414Z,2.03
2023-04-02T06:09:39.696Z,2.00
2023-04-02T06:12:28.409Z,2.37
2023-04-02T06:14:57.593Z,3.05
2023-04-02T06:17:25.307Z,2.87
2023-04-02T06:19:59.092Z,3.25
2023-04-02T06:22:35.815Z,2.75
2023-04-02T06:25:22.050Z,2.92
2023-04-02T06:27:51.110Z,2.30
2023-04-02T06:30:25.353Z,3.15
2023-04-02T06:32:55.671Z,2.53
2023-04-02T06:35:23.504Z,2.67
2023-04-02T06:37:58.817Z,3.00
2023-04-02T06:40:32.831Z,2.30
2023-04-02T06:43:06.318Z,2.50
2023-04-02T06:45:38.940Z,2.92
2023-04-02T06:48:17.413Z,8.55
2023-04-02T06:50:55.690Z,22.33
2023-04-02T06:53:31.608Z,20.95
2023-04-02T06:56:04.831Z,15.63
2023-04-02T06:58:32.238Z,18.45
2023-04-02T07:00:59.625Z,19.05
2023-04-02T07:03:29.182Z,51.37
2023-04-02T07:06:05.891Z,97.45
2023-04-02T07:08:33.353Z,96.63
2023-04-02T07:11:04.089Z,88.47
2023-04-02T07:13:37.168Z,84.32
2023-04-02T07:18:36.073Z,89.15
2023-04-02T07:21:03.986Z,79.20
2023-04-02T07:23:31.384Z,75.22
2023-04-02T07:26:01.927Z,75.37
2023-04-02T07:28:35.887Z,78.50
2023-04-02T07:31:23.027Z,72.12
2023-04-02T07:33:51.113Z,82.78
2023-04-02T07:36:27.076Z,77.70
2023-04-02T07:38:57.339Z,81.45
2023-04-02T07:41:24.924Z,79.43
2023-04-02T07:43:52.309Z,78.87
2023-04-02T07:46:22.357Z,73.18
2023-04-02T07:48:55.905Z,67.93
2023-04-02T07:51:27.507Z,64.82
2023-04-02T07:53:55.604Z,68.72
2023-04-02T07:56:25.283Z,73.43
2023-04-02T07:58:52.355Z,75.75
2023-04-02T08:01:24.536Z,71.28
2023-04-02T08:03:57.052Z,69.22
2023-04-02T08:06:27.966Z,63.97
2023-04-02T08:08:54.842Z,60.80
2023-04-02T08:11:25.146Z,69.65
2023-04-02T08:13:54.882Z,72.60
2023-04-02T08:16:24.598Z,72.95
2023-04-02T08:18:54.925Z,69.28
2023-04-02T08:21:24.724Z,67.65
2023-04-02T08:23:55.239Z,55.03
2023-04-02T08:26:25.851Z,55.55
2023-04-02T08:28:59.290Z,53.00
2023-04-02T08:31:26.302Z,54.05
2023-04-02T08:33:53.349Z,57.83
2023-04-02T08:36:30.876Z,40.30
2023-04-02T08:38:58.115Z,45.78
2023-04-02T08:41:30.187Z,47.90
2023-04-02T08:44:18.165Z,53.17
2023-04-02T08:46:48.401Z,48.75
2023-04-02T08:49:45.294Z,47.53
2023-04-02T08:52:37.320Z,46.53
2023-04-02T08:55:13.441Z,50.17
2023-04-02T08:57:52.223Z,44.22
2023-04-02T09:00:19.187Z,39.63
2023-04-02T09:03:10.761Z,42.50
2023-04-02T09:05:43.853Z,42.72
2023-04-02T09:11:11.288Z,41.55
2023-04-02T09:13:45.456Z,40.25
2023-04-02T09:16:13.397Z,39.20
2023-04-02T09:18:41.134Z,40.78
2023-04-02T09:21:38.810Z,39.25
2023-04-02T09:24:06.322Z,38.25
2023-04-02T09:26:39.053Z,38.92
2023-04-02T09:29:08.906Z,37.83
2023-04-02T09:31:49.269Z,36.45
2023-04-02T09:34:33.605Z,35.80
2023-04-02T09:37:28.274Z,34.25
2023-04-02T09:40:16.536Z,37.35
2023-04-02T09:42:46.001Z,33.17
2023-04-02T09:45:16.041Z,33.67
2023-04-02T09:47:48.778Z,34.67
2023-04-02T09:50:21.461Z,34.53
2023-04-02T09:52:52.198Z,30.23
2023-04-02T09:55:31.836Z,29.67
2023-04-02T09:58:12.730Z,30.65
2023-04-02T10:00:50.538Z,31.50
2023-04-02T10:03:27.101Z,29.85
2023-04-02T10:06:19.376Z,28.33
2023-04-02T10:08:52.619Z,31.02
2023-04-02T10:11:43.747Z,27.48
2023-04-02T10:14:30.444Z,28.02
2023-04-02T10:17:09.128Z,27.08
2023-04-02T10:20:16.533Z,26.02
2023-04-02T10:22:45.182Z,27.17
2023-04-02T10:25:21.982Z,25.00
2023-04-02T10:28:02.866Z,24.15
2023-04-02T10:30:56.132Z,24.30
2023-04-02T10:33:30.427Z,23.38
2023-04-02T10:36:20.972Z,24.37
2023-04-02T10:39:26.221Z,23.65
2023-04-02T10:41:53.050Z,27.75
2023-04-02T10:44:46.874Z,27.15
2023-04-02T10:47:27.402Z,23.98
2023-04-02T10:50:18.902Z,24.45
2023-04-02T10:53:12.634Z,23.98
2023-04-02T10:55:45.478Z,23.33
2023-04-02T10:59:11.135Z,22.25
2023-04-02T11:01:46.717Z,22.40
2023-04-02T11:04:43.011Z,22.58
2023-04-02T11:07:24.337Z,23.52
2023-04-02T11:09:56.642Z,22.73
2023-04-02T11:12:47.260Z,23.33
2023-04-02T11:15:20.462Z,21.35
2023-04-02T11:17:48.436Z,21.40
2023-04-02T11:20:51.926Z,21.10
2023-04-02T11:23:21.568Z,19.50
2023-04-02T11:26:15.372Z,19.60
2023-04-02T11:28:46.352Z,18.98
2023-04-02T11:31:21.684Z,19.45
2023-04-02T11:33:54.251Z,20.05
2023-04-02T11:36:52.811Z,18.83
2023-04-02T11:39:50.003Z,18.80
2023-04-02T11:42:20.886Z,18.35
2023-04-02T11:44:48.572Z,18.35
2023-04-02T11:47:22.163Z,19.02
2023-04-02T11:49:55.475Z,17.27
2023-04-02T11:52:33.203Z,17.05
2023-04-02T11:55:22.082Z,17.58
2023-04-02T11:58:05.575Z,17.00
2023-04-02T12:01:03.524Z,17.02
2023-04-02T12:04:07.919Z,15.45
2023-04-02T12:06:43.981Z,15.65
2023-04-02T12:09:25.207Z,15.68
2023-04-02T12:12:20.027Z,15.82
2023-04-02T12:14:56.497Z,14.40
2023-04-02T12:17:36.513Z,15.82
2023-04-02T12:20:09.442Z,15.88
2023-04-02T12:22:59.548Z,13.80
2023-04-02T12:25:35.582Z,13.95
2023-04-02T12:28:16.947Z,14.50
2023-04-02T12:30:48.309Z,14.77
2023-04-02T12:33:31.896Z,14.57
2023-04-02T12:36:02.984Z,13.43
2023-04-02T12:38:45.768Z,13.48
2023-04-02T12:41:35.740Z,14.07
2023-04-02T12:44:07.072Z,13.00
2023-04-02T12:46:35.901Z,13.18
2023-04-02T12:49:14.990Z,13.15
2023-04-02T12:51:48.899Z,13.70
2023-04-02T12:54:22.955Z,11.85
2023-04-02T12:57:32.940Z,12.65
2023-04-02T13:00:02.451Z,12.70
2023-04-02T13:02:44.223Z,11.65
2023-04-02T13:05:34.764Z,12.68
2023-04-02T13:08:16.137Z,16.48
2023-04-02T13:10:46.083Z,14.20
2023-04-02T13:13:29.337Z,13.20
2023-04-02T13:16:27.810Z,11.25
2023-04-02T13:19:24.457Z,9.40
2023-04-02T13:21:55.557Z,10.43
2023-04-02T13:24:29.885Z,14.20
2023-04-02T13:27:02.335Z,13.93
2023-04-02T13:29:36.796Z,13.57
2023-04-02T13:32:13.105Z,14.93
2023-04-02T13:34:47.040Z,15.40
2023-04-02T13:37:20.289Z,13.68
2023-04-02T13:39:56.412Z,14.48
2023-04-02T13:42:23.758Z,14.90
2023-04-02T13:44:53.192Z,13.30
2023-04-02T13:47:24.310Z,12.80
2023-04-02T13:49:51.854Z,14.45
2023-04-02T13:52:20.003Z,14.02
2023-04-02T13:54:52.868Z,14.43
2023-04-02T13:57:22.850Z,12.18
2023-04-02T13:59:54.409Z,12.55
2023-04-02T14:02:25.548Z,12.50
2023-04-02T14:05:32.813Z,10.43
2023-04-02T14:08:37.150Z,11.57
2023-04-02T14:11:11.214Z,11.60
2023-04-02T14:13:47.065Z,11.40
2023-04-02T14:16:47.439Z,12.32
2023-04-02T14:19:38.427Z,10.93
2023-04-02T14:22:43.732Z,11.30
2023-04-02T14:25:13.310Z,10.23
2023-04-02T14:28:01.876Z,10.35
2023-04-02T14:30:50.100Z,11.02
2023-04-02T14:33:33.588Z,11.98
2023-04-02T14:36:38.997Z,10.02
2023-04-02T14:39:45.920Z,10.63
2023-04-02T14:42:20.141Z,9.15
2023-04-02T14:45:03.601Z,9.82
2023-04-02T14:47:45.495Z,10.23
2023-04-02T14:50:30.777Z,10.13
2023-04-02T14:53:09.394Z,9.40
2023-04-02T14:55:44.397Z,9.43
2023-04-02T14:58:25.765Z,8.88
2023-04-02T15:01:27.797Z,8.65
2023-04-02T15:04:03.161Z,9.35
2023-04-02T15:06:45.974Z,8.88
2023-04-02T15:09:37.266Z,8.57
2023-04-02T15:12:12.670Z,9.00
2023-04-02T15:14:47.449Z,8.90
2023-04-02T15:17:17.748Z,8.57
2023-04-02T15:19:47.679Z,7.78
2023-04-02T15:22:35.297Z,8.40
2023-04-02T15:25:48.492Z,7.45
2023-04-02T15:28:38.218Z,7.97
2023-04-02T15:31:13.226Z,8.20
2023-04-02T15:34:08.365Z,7.12
2023-04-02T15:36:56.508Z,7.78
2023-04-02T15:39:36.331Z,7.50
2023-04-02T15:42:12.888Z,7.00
2023-04-02T15:45:09.377Z,7.00
2023-04-02T15:47:54.955Z,6.35
2023-04-02T15:50:27.696Z,6.65
2023-04-02T15:53:19.918Z,6.62
2023-04-02T15:56:04.094Z,6.40
2023-04-02T15:58:39.736Z,6.18
2023-04-02T16:01:35.502Z,6.47
2023-04-02T16:04:22.380Z,7.05
2023-04-02T16:07:25.303Z,6.25
2023-04-02T16:10:09.539Z,6.05
2023-04-02T16:12:38.902Z,5.50
2023-04-02T16:15:23.232Z,5.80
2023-04-02T16:18:04.599Z,5.65
2023-04-02T16:20:43.916Z,6.47
2023-04-02T16:23:29.622Z,5.68
2023-04-02T16:26:08.277Z,5.37
2023-04-02T16:28:45.149Z,5.72
2023-04-02T16:31:28.443Z,5.20
2023-04-02T16:34:05.889Z,5.37
2023-04-02T16:36:45.362Z,5.20
2023-04-02T16:39:35.082Z,5.78
2023-04-02T16:42:33.780Z,5.37
2023-04-02T16:45:19.280Z,5.10
2023-04-02T16:47:55.317Z,5.45
2023-04-02T16:50:31.702Z,6.87
2023-04-02T16:53:14.668Z,5.15
2023-04-02T16:55:52.016Z,5.43
2023-04-02T16:58:54.781Z,4.85
2023-04-02T17:01:42.468Z,4.87
2023-04-02T17:04:40.667Z,6.43
2023-04-02T17:07:37.900Z,4.32
2023-04-02T17:10:17.225Z,4.32
2023-04-02T17:12:57.104Z,4.90
2023-04-02T17:15:28.768Z,4.05
2023-04-02T17:18:01.297Z,4.47
2023-04-02T17:20:31.822Z,5.53
2023-04-02T17:23:05.796Z,4.95
2023-04-02T17:25:45.012Z,4.53
2023-04-02T17:28:19.170Z,5.15
2023-04-02T17:30:53.163Z,4.28
2023-04-02T17:33:24.060Z,4.65
2023-04-02T17:35:57.232Z,4.60
2023-04-02T17:38:52.277Z,4.40
2023-04-02T17:41:44.673Z,4.18
2023-04-02T17:44:39.261Z,4.60
2023-04-02T17:47:23.805Z,4.28
2023-04-02T17:50:06.551Z,3.87
2023-04-02T17:53:03.011Z,4.22
2023-04-02T17:55:49.302Z,4.30
2023-04-02T17:58:54.917Z,4.55
2023-04-02T18:01:38.314Z,4.55
2023-04-02T18:04:46.848Z,4.22
2023-04-02T18:07:44.958Z,4.20
2023-04-02T18:10:38.550Z,4.15
2023-04-02T18:13:35.722Z,4.22
2023-04-02T18:16:12.928Z,3.53
2023-04-02T18:18:59.122Z,3.50
2023-04-02T18:21:38.359Z,3.85
2023-04-02T18:24:14.801Z,3.55
2023-04-02T18:26:51.075Z,3.75
2023-04-02T18:29:23.992Z,3.65
2023-04-02T18:32:15.647Z,3.70
2023-04-02T18:34:55.766Z,3.75
2023-04-02T18:37:57.415Z,2.75
2023-04-02T18:41:23.060Z,2.87
2023-04-02T18:44:14.718Z,2.60
2023-04-02T18:47:10.771Z,2.53
2023-04-02T18:50:12.963Z,2.55
2023-04-02T18:52:48.015Z,2.83
2023-04-02T18:55:45.301Z,2.40
2023-04-02T18:58:22.036Z,2.47
2023-04-02T19:00:51.509Z,2.15
2023-04-02T19:03:36.364Z,3.17
2023-04-02T19:06:10.178Z,2.80
2023-04-02T19:08:51.831Z,2.53
2023-04-02T19:11:32.802Z,2.83
2023-04-02T19:14:12.673Z,2.67
2023-04-02T19:17:14.097Z,2.83
2023-04-02T19:20:09.220Z,3.20
2023-04-02T19:23:07.018Z,2.72
2023-04-02T19:25:55.439Z,3.42
2023-04-02T19:28:50.347Z,3.10
2023-04-02T19:31:53.888Z,3.05
2023-04-02T19:37:24.848Z,3.22
2023-04-02T19:40:09.605Z,2.92
2023-04-02T19:42:45.974Z,2.92
2023-04-02T19:45:36.785Z,3.25
2023-04-02T19:48:22.693Z,3.00
2023-04-02T19:50:50.873Z,3.17
2023-04-02T19:53:25.528Z,2.92
2023-04-02T19:55:59.786Z,2.87
2023-04-02T19:58:34.040Z,2.47
2023-04-02T20:01:07.575Z,3.28
2023-04-02T20:03:41.788Z,3.10
2023-04-02T20:06:15.630Z,2.50
2023-04-02T20:08:44.074Z,2.60
2023-04-02T20:11:18.472Z,2.72
2023-04-02T20:13:52.704Z,2.83
2023-04-02T20:16:35.788Z,3.05
2023-04-02T20:19:23.272Z,2.40
2023-04-02T20:21:53.329Z,2.30
2023-04-02T20:24:24.172Z,2.35
2023-04-02T20:26:58.010Z,2.60
2023-04-02T20:29:29.876Z,2.22
2023-04-02T20:32:17.703Z,3.03
2023-04-02T20:34:48.837Z,2.30
2023-04-02T20:37:19.402Z,2.33
2023-04-02T20:39:47.126Z,2.35
2023-04-02T20:42:14.284Z,2.25
2023-04-02T20:44:47.801Z,2.60
2023-04-02T20:47:18.878Z,2.55
2023-04-02T20:49:49.282Z,2.60
2023-04-02T20:52:22.673Z,2.45
2023-04-02T20:54:49.794Z,2.50
2023-04-02T20:57:22.609Z,2.00
2023-04-02T20:59:49.941Z,2.15
2023-04-02T21:02:17.110Z,2.42
2023-04-02T21:04:44.160Z,2.20
2023-04-02T21:07:18.590Z,2.10
2023-04-02T21:09:49.462Z,2.10
2023-04-02T21:12:25.685Z,2.25
2023-04-02T21:14:55.213Z,2.33
2023-04-02T21:17:25.756Z,2.20
2023-04-02T21:20:01.630Z,2.15
2023-04-02T21:22:34.322Z,2.08
2023-04-02T21:25:11.488Z,2.05
2023-04-02T21:27:50.090Z,2.12
2023-04-02T21:30:17.001Z,1.75
2023-04-02T21:32:46.515Z,2.03
2023-04-02T21:35:13.648Z,1.85
2023-04-02T21:37:44.239Z,2.12
2023-04-02T21:40:18.695Z,2.25
2023-04-02T21:42:48.533Z,2.00
2023-04-02T21:45:18.947Z,1.80
2023-04-02T21:47:49.399Z,2.10
2023-04-02T21:50:22.281Z,1.60
2023-04-02T21:52:53.146Z,2.05
2023-04-02T21:55:23.208Z,1.90
2023-04-02T21:57:53.584Z,1.90
2023-04-02T22:00:29.601Z,1.90
2023-04-02T22:03:02.491Z,2.05
2023-04-02T22:07:59.951Z,1.98
2023-04-02T22:10:29.889Z,1.87
2023-04-02T22:13:00.985Z,1.83
2023-04-02T22:15:29.910Z,2.30
2023-04-02T22:18:03.697Z,2.00
2023-04-02T22:20:38.255Z,1.80
2023-04-02T22:23:05.716Z,1.95
2023-04-02T22:25:38.743Z,1.75
2023-04-02T22:30:36.456Z,1.60
2023-04-02T22:33:14.140Z,1.70
2023-04-02T22:35:44.497Z,1.60
2023-04-02T22:38:18.856Z,1.85
2023-04-02T22:40:47.654Z,1.60
2023-04-02T22:43:20.946Z,2.00
2023-04-02T22:45:57.108Z,1.42
2023-04-02T22:48:27.290Z,1.70
2023-04-02T22:51:02.120Z,1.70
2023-04-02T22:53:42.368Z,1.55
2023-04-02T22:56:18.350Z,1.75
2023-04-02T22:58:51.798Z,1.87
2023-04-02T23:01:27.355Z,1.75
2023-04-02T23:03:59.294Z,1.65
2023-04-02T23:06:27.640Z,1.40
2023-04-02T23:08:58.976Z,1.42
2023-04-02T23:11:28.283Z,1.58
2023-04-02T23:13:59.200Z,1.73
2023-04-02T23:16:29.859Z,1.70
2023-04-02T23:18:57.943Z,1.80
2023-04-02T23:21:34.158Z,1.70
2023-04-02T23:24:05.954Z,1.60
2023-04-02T23:26:39.123Z,1.90
2023-04-02T23:31:40.742Z,1.62
2023-04-02T23:34:11.482Z,1.52
2023-04-02T23:36:41.416Z,1.58
2023-04-02T23:39:17.994Z,1.48
2023-04-02T23:41:49.157Z,1.45
2023-04-02T23:44:19.758Z,1.67
2023-04-02T23:46:54.519Z,1.42
2023-04-02T23:49:31.109Z,1.62
2023-04-02T23:52:05.516Z,1.45
2023-04-02T23:54:45.209Z,1.50
2023-04-02T23:57:16.279Z,1.42
2023-04-02T23:59:43.927Z,1.42
